sensor_id;sensor_type;location;lat;lon;timestamp;P1;durP1;ratioP1;P2;durP2;ratioP2
48945;SDS011;34999;50.940;3.998;2023-04-28T00:00:39;41.07;;;22.63;;
48945;SDS011;34999;50.940;3.998;2023-04-28T00:03:07;38.23;;;22.67;;
48945;SDS011;34999;50.940;3.998;2023-04-28T00:05:35;46.37;;;23.50;;
48945;SDS011;34999;50.940;3.998;2023-04-28T00:08:04;43.40;;;22.87;;
48945;SDS011;34999;50.940;3.998;2023-04-28T00:10:33;43.53;;;24.33;;
48945;SDS011;34999;50.940;3.998;2023-04-28T00:13:02;48.43;;;24.77;;
48945;SDS011;34999;50.940;3.998;2023-04-28T00:15:30;40.10;;;23.53;;
48945;SDS011;34999;50.940;3.998;2023-04-28T00:17:58;41.77;;;23.10;;
48945;SDS011;34999;50.940;3.998;2023-04-28T00:20:26;39.10;;;23.10;;
48945;SDS011;34999;50.940;3.998;2023-04-28T00:22:55;43.23;;;24.93;;
48945;SDS011;34999;50.940;3.998;2023-04-28T00:25:23;40.33;;;23.43;;
48945;SDS011;34999;50.940;3.998;2023-04-28T00:27:53;45.17;;;25.23;;
48945;SDS011;34999;50.940;3.998;2023-04-28T00:30:21;46.90;;;23.23;;
48945;SDS011;34999;50.940;3.998;2023-04-28T00:32:50;40.77;;;22.77;;
48945;SDS011;34999;50.940;3.998;2023-04-28T00:35:18;39.00;;;23.17;;
48945;SDS011;34999;50.940;3.998;2023-04-28T00:37:47;45.23;;;24.87;;
48945;SDS011;34999;50.940;3.998;2023-04-28T00:40:15;42.67;;;24.07;;
48945;SDS011;34999;50.940;3.998;2023-04-28T00:42:43;53.47;;;24.63;;
48945;SDS011;34999;50.940;3.998;2023-04-28T00:45:13;45.93;;;24.40;;
48945;SDS011;34999;50.940;3.998;2023-04-28T00:47:41;44.93;;;24.93;;
48945;SDS011;34999;50.940;3.998;2023-04-28T00:50:09;42.73;;;24.27;;
48945;SDS011;34999;50.940;3.998;2023-04-28T00:52:38;40.43;;;23.53;;
48945;SDS011;34999;50.940;3.998;2023-04-28T00:55:07;40.07;;;23.20;;
48945;SDS011;34999;50.940;3.998;2023-04-28T00:57:36;41.07;;;23.40;;
48945;SDS011;34999;50.940;3.998;2023-04-28T01:00:05;41.57;;;22.47;;
48945;SDS011;34999;50.940;3.998;2023-04-28T01:05:38;35.33;;;22.03;;
48945;SDS011;34999;50.940;3.998;2023-04-28T01:08:06;47.33;;;23.73;;
48945;SDS011;34999;50.940;3.998;2023-04-28T01:10:34;39.40;;;23.23;;
48945;SDS011;34999;50.940;3.998;2023-04-28T01:13:02;42.90;;;23.10;;
48945;SDS011;34999;50.940;3.998;2023-04-28T01:15:31;41.93;;;23.63;;
48945;SDS011;34999;50.940;3.998;2023-04-28T01:17:59;42.03;;;23.70;;
48945;SDS011;34999;50.940;3.998;2023-04-28T01:20:27;43.93;;;23.77;;
48945;SDS011;34999;50.940;3.998;2023-04-28T01:22:58;45.07;;;23.97;;
48945;SDS011;34999;50.940;3.998;2023-04-28T01:25:27;39.67;;;24.20;;
48945;SDS011;34999;50.940;3.998;2023-04-28T01:27:55;40.67;;;24.37;;
48945;SDS011;34999;50.940;3.998;2023-04-28T01:30:24;43.77;;;24.90;;
48945;SDS011;34999;50.940;3.998;2023-04-28T01:32:52;51.37;;;26.23;;
48945;SDS011;34999;50.940;3.998;2023-04-28T01:35:20;55.37;;;27.37;;
48945;SDS011;34999;50.940;3.998;2023-04-28T01:37:48;53.07;;;27.30;;
48945;SDS011;34999;50.940;3.998;2023-04-28T01:40:17;55.50;;;28.40;;
48945;SDS011;34999;50.940;3.998;2023-04-28T01:42:48;54.77;;;28.87;;
48945;SDS011;34999;50.940;3.998;2023-04-28T01:45:16;55.23;;;30.03;;
48945;SDS011;34999;50.940;3.998;2023-04-28T01:47:45;53.03;;;28.03;;
48945;SDS011;34999;50.940;3.998;2023-04-28T01:50:13;57.47;;;29.80;;
48945;SDS011;34999;50.940;3.998;2023-04-28T01:52:41;62.73;;;30.73;;
48945;SDS011;34999;50.940;3.998;2023-04-28T01:55:09;62.03;;;30.57;;
48945;SDS011;34999;50.940;3.998;2023-04-28T01:57:38;67.77;;;34.37;;
48945;SDS011;34999;50.940;3.998;2023-04-28T02:00:08;66.27;;;34.40;;
48945;SDS011;34999;50.940;3.998;2023-04-28T02:02:37;72.80;;;35.50;;
48945;SDS011;34999;50.940;3.998;2023-04-28T02:05:05;73.90;;;34.57;;
48945;SDS011;34999;50.940;3.998;2023-04-28T02:07:34;74.23;;;36.53;;
48945;SDS011;34999;50.940;3.998;2023-04-28T02:10:02;79.57;;;38.40;;
48945;SDS011;34999;50.940;3.998;2023-04-28T02:12:32;79.43;;;38.93;;
48945;SDS011;34999;50.940;3.998;2023-04-28T02:15:00;81.10;;;38.70;;
48945;SDS011;34999;50.940;3.998;2023-04-28T02:17:30;82.30;;;38.30;;
48945;SDS011;34999;50.940;3.998;2023-04-28T02:20:00;82.93;;;39.97;;
48945;SDS011;34999;50.940;3.998;2023-04-28T02:22:28;82.03;;;39.60;;
48945;SDS011;34999;50.940;3.998;2023-04-28T02:24:56;80.03;;;39.13;;
48945;SDS011;34999;50.940;3.998;2023-04-28T02:27:25;87.57;;;39.80;;
48945;SDS011;34999;50.940;3.998;2023-04-28T02:29:53;83.07;;;39.67;;
48945;SDS011;34999;50.940;3.998;2023-04-28T02:32:21;84.57;;;39.13;;
48945;SDS011;34999;50.940;3.998;2023-04-28T02:34:53;86.43;;;39.63;;
48945;SDS011;34999;50.940;3.998;2023-04-28T02:37:21;83.50;;;39.27;;
48945;SDS011;34999;50.940;3.998;2023-04-28T02:39:49;85.57;;;40.80;;
48945;SDS011;34999;50.940;3.998;2023-04-28T02:42:18;83.67;;;40.00;;
48945;SDS011;34999;50.940;3.998;2023-04-28T02:44:47;79.37;;;39.77;;
48945;SDS011;34999;50.940;3.998;2023-04-28T02:47:18;81.27;;;38.50;;
48945;SDS011;34999;50.940;3.998;2023-04-28T02:49:46;89.13;;;41.90;;
48945;SDS011;34999;50.940;3.998;2023-04-28T02:52:16;80.53;;;39.10;;
48945;SDS011;34999;50.940;3.998;2023-04-28T02:54:44;82.37;;;41.50;;
48945;SDS011;34999;50.940;3.998;2023-04-28T02:57:14;85.57;;;39.20;;
48945;SDS011;34999;50.940;3.998;2023-04-28T02:59:42;87.83;;;42.37;;
48945;SDS011;34999;50.940;3.998;2023-04-28T03:02:10;89.33;;;40.43;;
48945;SDS011;34999;50.940;3.998;2023-04-28T03:04:38;83.27;;;40.70;;
48945;SDS011;34999;50.940;3.998;2023-04-28T03:07:07;91.43;;;41.87;;
48945;SDS011;34999;50.940;3.998;2023-04-28T03:09:37;81.90;;;40.50;;
48945;SDS011;34999;50.940;3.998;2023-04-28T03:12:07;84.70;;;37.90;;
48945;SDS011;34999;50.940;3.998;2023-04-28T03:14:36;89.90;;;40.23;;
48945;SDS011;34999;50.940;3.998;2023-04-28T03:17:04;80.30;;;39.50;;
48945;SDS011;34999;50.940;3.998;2023-04-28T03:19:32;77.97;;;40.13;;
48945;SDS011;34999;50.940;3.998;2023-04-28T03:22:01;84.73;;;40.93;;
48945;SDS011;34999;50.940;3.998;2023-04-28T03:24:29;84.10;;;39.57;;
48945;SDS011;34999;50.940;3.998;2023-04-28T03:26:59;81.93;;;38.63;;
48945;SDS011;34999;50.940;3.998;2023-04-28T03:29:29;85.30;;;39.77;;
48945;SDS011;34999;50.940;3.998;2023-04-28T03:31:57;89.67;;;40.70;;
48945;SDS011;34999;50.940;3.998;2023-04-28T03:34:25;87.97;;;40.73;;
48945;SDS011;34999;50.940;3.998;2023-04-28T03:36:54;92.33;;;42.20;;
48945;SDS011;34999;50.940;3.998;2023-04-28T03:39:22;87.70;;;41.97;;
48945;SDS011;34999;50.940;3.998;2023-04-28T03:41:50;92.97;;;42.60;;
48945;SDS011;34999;50.940;3.998;2023-04-28T03:44:20;82.63;;;39.27;;
48945;SDS011;34999;50.940;3.998;2023-04-28T03:46:48;90.57;;;42.23;;
48945;SDS011;34999;50.940;3.998;2023-04-28T03:49:17;98.90;;;43.13;;
48945;SDS011;34999;50.940;3.998;2023-04-28T03:51:45;102.27;;;43.90;;
48945;SDS011;34999;50.940;3.998;2023-04-28T03:54:13;91.30;;;42.13;;
48945;SDS011;34999;50.940;3.998;2023-04-28T03:56:42;84.33;;;40.47;;
48945;SDS011;34999;50.940;3.998;2023-04-28T03:59:12;94.47;;;42.83;;
48945;SDS011;34999;50.940;3.998;2023-04-28T04:01:41;94.97;;;43.83;;
48945;SDS011;34999;50.940;3.998;2023-04-28T04:04:10;93.03;;;43.40;;
48945;SDS011;34999;50.940;3.998;2023-04-28T04:06:39;93.67;;;43.23;;
48945;SDS011;34999;50.940;3.998;2023-04-28T04:09:07;90.77;;;42.27;;
48945;SDS011;34999;50.940;3.998;2023-04-28T04:11:35;105.07;;;42.77;;
48945;SDS011;34999;50.940;3.998;2023-04-28T04:14:04;88.77;;;42.87;;
48945;SDS011;34999;50.940;3.998;2023-04-28T04:16:32;93.90;;;44.33;;
48945;SDS011;34999;50.940;3.998;2023-04-28T04:19:03;93.07;;;43.93;;
48945;SDS011;34999;50.940;3.998;2023-04-28T04:21:31;92.33;;;42.53;;
48945;SDS011;34999;50.940;3.998;2023-04-28T04:24:00;105.20;;;44.07;;
48945;SDS011;34999;50.940;3.998;2023-04-28T04:26:28;96.67;;;44.23;;
48945;SDS011;34999;50.940;3.998;2023-04-28T04:28:56;97.33;;;44.17;;
48945;SDS011;34999;50.940;3.998;2023-04-28T04:31:24;98.20;;;43.10;;
48945;SDS011;34999;50.940;3.998;2023-04-28T04:33:53;90.67;;;44.57;;
48945;SDS011;34999;50.940;3.998;2023-04-28T04:36:23;94.50;;;44.37;;
48945;SDS011;34999;50.940;3.998;2023-04-28T04:38:51;95.10;;;44.73;;
48945;SDS011;34999;50.940;3.998;2023-04-28T04:41:20;101.00;;;45.93;;
48945;SDS011;34999;50.940;3.998;2023-04-28T04:43:48;101.93;;;45.20;;
48945;SDS011;34999;50.940;3.998;2023-04-28T04:46:16;103.53;;;44.87;;
48945;SDS011;34999;50.940;3.998;2023-04-28T04:48:45;101.47;;;46.33;;
48945;SDS011;34999;50.940;3.998;2023-04-28T04:51:13;102.97;;;44.63;;
48945;SDS011;34999;50.940;3.998;2023-04-28T04:53:43;105.07;;;45.37;;
48945;SDS011;34999;50.940;3.998;2023-04-28T04:56:12;104.10;;;44.87;;
48945;SDS011;34999;50.940;3.998;2023-04-28T04:58:41;103.53;;;45.63;;
48945;SDS011;34999;50.940;3.998;2023-04-28T05:01:10;103.60;;;44.70;;
48945;SDS011;34999;50.940;3.998;2023-04-28T05:03:39;102.77;;;46.27;;
48945;SDS011;34999;50.940;3.998;2023-04-28T05:06:07;94.87;;;43.63;;
48945;SDS011;34999;50.940;3.998;2023-04-28T05:08:35;96.43;;;44.40;;
48945;SDS011;34999;50.940;3.998;2023-04-28T05:11:05;90.70;;;43.57;;
48945;SDS011;34999;50.940;3.998;2023-04-28T05:13:35;94.53;;;43.80;;
48945;SDS011;34999;50.940;3.998;2023-04-28T05:16:05;100.77;;;44.73;;
48945;SDS011;34999;50.940;3.998;2023-04-28T05:18:33;98.57;;;44.67;;
48945;SDS011;34999;50.940;3.998;2023-04-28T05:21:02;99.93;;;44.13;;
48945;SDS011;34999;50.940;3.998;2023-04-28T05:23:30;95.57;;;43.17;;
48945;SDS011;34999;50.940;3.998;2023-04-28T05:25:58;91.53;;;42.43;;
48945;SDS011;34999;50.940;3.998;2023-04-28T05:28:29;93.80;;;43.27;;
48945;SDS011;34999;50.940;3.998;2023-04-28T05:30:59;93.43;;;41.80;;
48945;SDS011;34999;50.940;3.998;2023-04-28T05:33:27;93.70;;;41.67;;
48945;SDS011;34999;50.940;3.998;2023-04-28T05:35:56;85.97;;;40.20;;
48945;SDS011;34999;50.940;3.998;2023-04-28T05:38:24;94.80;;;41.20;;
48945;SDS011;34999;50.940;3.998;2023-04-28T05:40:53;86.37;;;39.90;;
48945;SDS011;34999;50.940;3.998;2023-04-28T05:43:21;85.83;;;38.83;;
48945;SDS011;34999;50.940;3.998;2023-04-28T05:45:51;79.17;;;38.27;;
48945;SDS011;34999;50.940;3.998;2023-04-28T05:48:19;69.40;;;35.07;;
48945;SDS011;34999;50.940;3.998;2023-04-28T05:50:48;53.87;;;29.70;;
48945;SDS011;34999;50.940;3.998;2023-04-28T05:53:16;41.73;;;23.83;;
48945;SDS011;34999;50.940;3.998;2023-04-28T05:55:44;37.10;;;22.50;;
48945;SDS011;34999;50.940;3.998;2023-04-28T05:58:12;41.53;;;22.30;;
48945;SDS011;34999;50.940;3.998;2023-04-28T06:00:40;36.30;;;21.80;;
48945;SDS011;34999;50.940;3.998;2023-04-28T06:03:10;37.17;;;20.50;;
48945;SDS011;34999;50.940;3.998;2023-04-28T06:05:40;30.60;;;19.13;;
48945;SDS011;34999;50.940;3.998;2023-04-28T06:08:09;25.33;;;17.23;;
48945;SDS011;34999;50.940;3.998;2023-04-28T06:10:37;24.30;;;16.13;;
48945;SDS011;34999;50.940;3.998;2023-04-28T06:13:06;22.47;;;15.07;;
48945;SDS011;34999;50.940;3.998;2023-04-28T06:15:34;18.20;;;13.80;;
48945;SDS011;34999;50.940;3.998;2023-04-28T06:18:02;19.13;;;12.93;;
48945;SDS011;34999;50.940;3.998;2023-04-28T06:20:34;14.73;;;11.80;;
48945;SDS011;34999;50.940;3.998;2023-04-28T06:23:02;13.53;;;10.23;;
48945;SDS011;34999;50.940;3.998;2023-04-28T06:25:30;12.03;;;9.37;;
48945;SDS011;34999;50.940;3.998;2023-04-28T06:27:59;9.87;;;8.87;;
48945;SDS011;34999;50.940;3.998;2023-04-28T06:30:27;9.37;;;8.43;;
48945;SDS011;34999;50.940;3.998;2023-04-28T06:32:55;11.87;;;8.90;;
48945;SDS011;34999;50.940;3.998;2023-04-28T06:35:24;9.77;;;8.77;;
48945;SDS011;34999;50.940;3.998;2023-04-28T06:37:54;9.30;;;8.30;;
48945;SDS011;34999;50.940;3.998;2023-04-28T06:40:22;8.40;;;7.60;;
48945;SDS011;34999;50.940;3.998;2023-04-28T06:42:51;8.07;;;7.37;;
48945;SDS011;34999;50.940;3.998;2023-04-28T06:45:19;11.53;;;8.10;;
48945;SDS011;34999;50.940;3.998;2023-04-28T06:47:47;13.93;;;8.53;;
48945;SDS011;34999;50.940;3.998;2023-04-28T06:50:16;8.97;;;8.03;;
48945;SDS011;34999;50.940;3.998;2023-04-28T06:52:44;11.00;;;9.20;;
48945;SDS011;34999;50.940;3.998;2023-04-28T06:55:14;9.10;;;8.30;;
48945;SDS011;34999;50.940;3.998;2023-04-28T06:57:43;8.90;;;8.10;;
48945;SDS011;34999;50.940;3.998;2023-04-28T07:00:12;7.87;;;7.13;;
48945;SDS011;34999;50.940;3.998;2023-04-28T07:02:41;7.70;;;7.00;;
48945;SDS011;34999;50.940;3.998;2023-04-28T07:05:10;7.23;;;6.50;;
48945;SDS011;34999;50.940;3.998;2023-04-28T07:07:41;7.07;;;6.47;;
48945;SDS011;34999;50.940;3.998;2023-04-28T07:10:10;10.17;;;6.10;;
48945;SDS011;34999;50.940;3.998;2023-04-28T07:12:40;7.30;;;6.70;;
48945;SDS011;34999;50.940;3.998;2023-04-28T07:15:08;7.93;;;7.10;;
48945;SDS011;34999;50.940;3.998;2023-04-28T07:17:38;6.03;;;5.53;;
48945;SDS011;34999;50.940;3.998;2023-04-28T07:20:07;4.90;;;4.60;;
48945;SDS011;34999;50.940;3.998;2023-04-28T07:22:36;4.97;;;4.73;;
48945;SDS011;34999;50.940;3.998;2023-04-28T07:25:04;5.03;;;4.67;;
48945;SDS011;34999;50.940;3.998;2023-04-28T07:27:34;4.07;;;3.83;;
48945;SDS011;34999;50.940;3.998;2023-04-28T07:30:04;3.73;;;3.63;;
48945;SDS011;34999;50.940;3.998;2023-04-28T07:32:52;3.40;;;3.30;;
48945;SDS011;34999;50.940;3.998;2023-04-28T07:35:20;3.37;;;3.27;;
48945;SDS011;34999;50.940;3.998;2023-04-28T07:37:49;3.20;;;3.10;;
48945;SDS011;34999;50.940;3.998;2023-04-28T07:40:17;3.13;;;3.03;;
48945;SDS011;34999;50.940;3.998;2023-04-28T07:42:46;2.83;;;2.80;;
48945;SDS011;34999;50.940;3.998;2023-04-28T07:45:16;2.87;;;2.77;;
48945;SDS011;34999;50.940;3.998;2023-04-28T07:47:44;2.90;;;2.80;;
48945;SDS011;34999;50.940;3.998;2023-04-28T07:50:12;3.07;;;2.97;;
48945;SDS011;34999;50.940;3.998;2023-04-28T07:52:41;2.90;;;2.80;;
48945;SDS011;34999;50.940;3.998;2023-04-28T07:55:10;2.97;;;2.77;;
48945;SDS011;34999;50.940;3.998;2023-04-28T07:57:38;2.67;;;2.67;;
48945;SDS011;34999;50.940;3.998;2023-04-28T08:00:08;2.50;;;2.50;;
48945;SDS011;34999;50.940;3.998;2023-04-28T08:02:39;2.57;;;2.57;;
48945;SDS011;34999;50.940;3.998;2023-04-28T08:05:07;2.63;;;2.50;;
48945;SDS011;34999;50.940;3.998;2023-04-28T08:07:40;2.70;;;2.60;;
48945;SDS011;34999;50.940;3.998;2023-04-28T08:10:08;2.30;;;2.27;;
48945;SDS011;34999;50.940;3.998;2023-04-28T08:12:37;2.10;;;2.10;;
48945;SDS011;34999;50.940;3.998;2023-04-28T08:15:08;2.40;;;2.30;;
48945;SDS011;34999;50.940;3.998;2023-04-28T08:17:39;2.93;;;2.30;;
48945;SDS011;34999;50.940;3.998;2023-04-28T08:20:07;2.43;;;2.37;;
48945;SDS011;34999;50.940;3.998;2023-04-28T08:22:36;2.20;;;2.20;;
48945;SDS011;34999;50.940;3.998;2023-04-28T08:25:04;1.80;;;1.80;;
48945;SDS011;34999;50.940;3.998;2023-04-28T08:27:33;2.00;;;1.90;;
48945;SDS011;34999;50.940;3.998;2023-04-28T08:30:03;2.17;;;1.77;;
48945;SDS011;34999;50.940;3.998;2023-04-28T08:32:32;1.50;;;1.50;;
48945;SDS011;34999;50.940;3.998;2023-04-28T08:35:03;1.30;;;1.30;;
48945;SDS011;34999;50.940;3.998;2023-04-28T08:37:31;1.10;;;1.10;;
48945;SDS011;34999;50.940;3.998;2023-04-28T08:39:59;1.20;;;1.20;;
48945;SDS011;34999;50.940;3.998;2023-04-28T08:42:30;1.77;;;1.70;;
48945;SDS011;34999;50.940;3.998;2023-04-28T08:44:58;2.20;;;2.00;;
48945;SDS011;34999;50.940;3.998;2023-04-28T08:47:28;1.73;;;1.73;;
48945;SDS011;34999;50.940;3.998;2023-04-28T08:50:03;2.10;;;2.00;;
48945;SDS011;34999;50.940;3.998;2023-04-28T08:52:33;4.53;;;2.10;;
48945;SDS011;34999;50.940;3.998;2023-04-28T08:55:04;2.00;;;1.90;;
48945;SDS011;34999;50.940;3.998;2023-04-28T08:57:36;2.10;;;1.50;;
48945;SDS011;34999;50.940;3.998;2023-04-28T09:00:07;1.60;;;1.60;;
48945;SDS011;34999;50.940;3.998;2023-04-28T09:02:36;1.87;;;1.70;;
48945;SDS011;34999;50.940;3.998;2023-04-28T09:05:10;1.50;;;1.50;;
48945;SDS011;34999;50.940;3.998;2023-04-28T09:07:42;1.37;;;1.20;;
48945;SDS011;34999;50.940;3.998;2023-04-28T09:10:17;1.37;;;1.30;;
48945;SDS011;34999;50.940;3.998;2023-04-28T09:12:47;1.20;;;1.20;;
48945;SDS011;34999;50.940;3.998;2023-04-28T09:15:24;1.40;;;1.00;;
48945;SDS011;34999;50.940;3.998;2023-04-28T09:17:56;1.30;;;1.30;;
48945;SDS011;34999;50.940;3.998;2023-04-28T09:20:27;1.60;;;1.23;;
48945;SDS011;34999;50.940;3.998;2023-04-28T09:23:11;1.40;;;1.40;;
48945;SDS011;34999;50.940;3.998;2023-04-28T09:25:53;3.50;;;1.20;;
48945;SDS011;34999;50.940;3.998;2023-04-28T09:28:23;1.37;;;1.37;;
48945;SDS011;34999;50.940;3.998;2023-04-28T09:30:51;1.90;;;1.30;;
48945;SDS011;34999;50.940;3.998;2023-04-28T09:33:19;1.37;;;1.37;;
48945;SDS011;34999;50.940;3.998;2023-04-28T09:35:49;1.77;;;1.40;;
48945;SDS011;34999;50.940;3.998;2023-04-28T09:38:18;1.37;;;1.37;;
48945;SDS011;34999;50.940;3.998;2023-04-28T09:40:51;1.33;;;1.33;;
48945;SDS011;34999;50.940;3.998;2023-04-28T09:43:27;1.20;;;1.20;;
48945;SDS011;34999;50.940;3.998;2023-04-28T09:46:00;1.77;;;1.20;;
48945;SDS011;34999;50.940;3.998;2023-04-28T09:48:31;0.90;;;0.90;;
48945;SDS011;34999;50.940;3.998;2023-04-28T09:51:02;1.23;;;1.20;;
48945;SDS011;34999;50.940;3.998;2023-04-28T09:53:31;1.20;;;1.20;;
48945;SDS011;34999;50.940;3.998;2023-04-28T09:56:02;1.07;;;1.07;;
48945;SDS011;34999;50.940;3.998;2023-04-28T09:58:31;1.20;;;1.20;;
48945;SDS011;34999;50.940;3.998;2023-04-28T10:01:07;1.20;;;1.20;;
48945;SDS011;34999;50.940;3.998;2023-04-28T10:03:38;1.30;;;1.20;;
48945;SDS011;34999;50.940;3.998;2023-04-28T10:06:08;1.30;;;1.30;;
48945;SDS011;34999;50.940;3.998;2023-04-28T10:08:37;1.53;;;1.43;;
48945;SDS011;34999;50.940;3.998;2023-04-28T10:11:05;1.37;;;1.37;;
48945;SDS011;34999;50.940;3.998;2023-04-28T10:13:35;1.50;;;1.40;;
48945;SDS011;34999;50.940;3.998;2023-04-28T10:16:05;1.40;;;1.40;;
48945;SDS011;34999;50.940;3.998;2023-04-28T10:18:34;4.27;;;1.40;;
48945;SDS011;34999;50.940;3.998;2023-04-28T10:21:04;1.80;;;1.70;;
48945;SDS011;34999;50.940;3.998;2023-04-28T10:29:37;1.57;;;1.57;;
48945;SDS011;34999;50.940;3.998;2023-04-28T10:32:18;1.50;;;1.50;;
48945;SDS011;34999;50.940;3.998;2023-04-28T10:34:49;1.57;;;1.47;;
48945;SDS011;34999;50.940;3.998;2023-04-28T10:37:17;2.30;;;1.47;;
48945;SDS011;34999;50.940;3.998;2023-04-28T10:42:54;1.40;;;1.30;;
48945;SDS011;34999;50.940;3.998;2023-04-28T10:48:52;1.40;;;1.30;;
48945;SDS011;34999;50.940;3.998;2023-04-28T10:51:27;1.97;;;1.83;;
48945;SDS011;34999;50.940;3.998;2023-04-28T10:59:51;1.47;;;1.47;;
48945;SDS011;34999;50.940;3.998;2023-04-28T11:02:59;2.77;;;1.83;;
48945;SDS011;34999;50.940;3.998;2023-04-28T11:05:27;1.43;;;1.40;;
48945;SDS011;34999;50.940;3.998;2023-04-28T11:11:15;1.63;;;1.53;;
48945;SDS011;34999;50.940;3.998;2023-04-28T11:13:46;1.40;;;1.40;;
48945;SDS011;34999;50.940;3.998;2023-04-28T11:16:20;1.63;;;1.53;;
48945;SDS011;34999;50.940;3.998;2023-04-28T11:18:54;1.70;;;1.60;;
48945;SDS011;34999;50.940;3.998;2023-04-28T11:21:25;1.77;;;1.67;;
48945;SDS011;34999;50.940;3.998;2023-04-28T11:23:54;2.30;;;2.10;;
48945;SDS011;34999;50.940;3.998;2023-04-28T11:26:24;2.47;;;2.37;;
48945;SDS011;34999;50.940;3.998;2023-04-28T11:28:55;2.60;;;2.40;;
48945;SDS011;34999;50.940;3.998;2023-04-28T11:31:25;2.10;;;2.00;;
48945;SDS011;34999;50.940;3.998;2023-04-28T11:33:57;2.50;;;2.40;;
48945;SDS011;34999;50.940;3.998;2023-04-28T11:36:30;2.97;;;1.90;;
48945;SDS011;34999;50.940;3.998;2023-04-28T11:39:01;1.87;;;1.87;;
48945;SDS011;34999;50.940;3.998;2023-04-28T11:41:33;1.67;;;1.67;;
48945;SDS011;34999;50.940;3.998;2023-04-28T11:44:08;1.50;;;1.50;;
48945;SDS011;34999;50.940;3.998;2023-04-28T11:46:44;1.30;;;1.30;;
48945;SDS011;34999;50.940;3.998;2023-04-28T11:49:16;1.30;;;1.30;;
48945;SDS011;34999;50.940;3.998;2023-04-28T11:51:46;3.17;;;1.23;;
48945;SDS011;34999;50.940;3.998;2023-04-28T11:54:19;1.20;;;1.20;;
48945;SDS011;34999;50.940;3.998;2023-04-28T11:56:48;1.57;;;1.57;;
48945;SDS011;34999;50.940;3.998;2023-04-28T11:59:16;1.30;;;1.30;;
48945;SDS011;34999;50.940;3.998;2023-04-28T12:01:48;1.23;;;1.13;;
48945;SDS011;34999;50.940;3.998;2023-04-28T12:04:27;1.50;;;1.50;;
48945;SDS011;34999;50.940;3.998;2023-04-28T12:07:00;1.70;;;1.70;;
48945;SDS011;34999;50.940;3.998;2023-04-28T12:09:30;1.50;;;1.50;;
48945;SDS011;34999;50.940;3.998;2023-04-28T12:12:03;1.60;;;1.60;;
48945;SDS011;34999;50.940;3.998;2023-04-28T12:17:25;2.83;;;1.40;;
48945;SDS011;34999;50.940;3.998;2023-04-28T12:19:54;1.50;;;1.40;;
48945;SDS011;34999;50.940;3.998;2023-04-28T12:22:23;1.40;;;1.30;;
48945;SDS011;34999;50.940;3.998;2023-04-28T12:25:01;1.47;;;1.37;;
48945;SDS011;34999;50.940;3.998;2023-04-28T12:27:32;1.43;;;1.43;;
48945;SDS011;34999;50.940;3.998;2023-04-28T12:30:04;1.60;;;1.60;;
48945;SDS011;34999;50.940;3.998;2023-04-28T12:32:53;1.60;;;1.60;;
48945;SDS011;34999;50.940;3.998;2023-04-28T12:35:23;1.80;;;1.80;;
48945;SDS011;34999;50.940;3.998;2023-04-28T12:37:52;1.67;;;1.67;;
48945;SDS011;34999;50.940;3.998;2023-04-28T12:40:21;1.90;;;1.80;;
48945;SDS011;34999;50.940;3.998;2023-04-28T12:42:50;2.07;;;1.87;;
48945;SDS011;34999;50.940;3.998;2023-04-28T12:45:18;2.10;;;2.00;;
48945;SDS011;34999;50.940;3.998;2023-04-28T12:47:46;1.87;;;1.87;;
48945;SDS011;34999;50.940;3.998;2023-04-28T12:50:16;2.07;;;1.93;;
48945;SDS011;34999;50.940;3.998;2023-04-28T12:52:44;2.30;;;2.20;;
48945;SDS011;34999;50.940;3.998;2023-04-28T12:55:13;2.43;;;2.23;;
48945;SDS011;34999;50.940;3.998;2023-04-28T12:57:41;2.17;;;2.17;;
48945;SDS011;34999;50.940;3.998;2023-04-28T13:00:10;1.87;;;1.80;;
48945;SDS011;34999;50.940;3.998;2023-04-28T13:02:42;2.27;;;2.13;;
48945;SDS011;34999;50.940;3.998;2023-04-28T13:05:13;2.00;;;1.90;;
48945;SDS011;34999;50.940;3.998;2023-04-28T13:07:45;1.90;;;1.90;;
48945;SDS011;34999;50.940;3.998;2023-04-28T13:10:14;2.40;;;2.30;;
48945;SDS011;34999;50.940;3.998;2023-04-28T13:12:43;2.10;;;2.00;;
48945;SDS011;34999;50.940;3.998;2023-04-28T13:15:12;2.43;;;2.27;;
48945;SDS011;34999;50.940;3.998;2023-04-28T13:17:40;2.40;;;2.30;;
48945;SDS011;34999;50.940;3.998;2023-04-28T13:20:09;3.63;;;2.60;;
48945;SDS011;34999;50.940;3.998;2023-04-28T13:22:40;2.43;;;2.40;;
48945;SDS011;34999;50.940;3.998;2023-04-28T13:25:08;2.93;;;2.73;;
48945;SDS011;34999;50.940;3.998;2023-04-28T13:27:36;2.87;;;2.77;;
48945;SDS011;34999;50.940;3.998;2023-04-28T13:30:08;2.83;;;2.70;;
48945;SDS011;34999;50.940;3.998;2023-04-28T13:32:38;3.10;;;2.80;;
48945;SDS011;34999;50.940;3.998;2023-04-28T13:35:07;3.47;;;3.17;;
48945;SDS011;34999;50.940;3.998;2023-04-28T13:37:35;6.73;;;3.30;;
48945;SDS011;34999;50.940;3.998;2023-04-28T13:40:10;3.23;;;3.13;;
48945;SDS011;34999;50.940;3.998;2023-04-28T13:42:39;3.33;;;2.97;;
48945;SDS011;34999;50.940;3.998;2023-04-28T13:45:07;3.00;;;2.90;;
48945;SDS011;34999;50.940;3.998;2023-04-28T13:47:36;3.40;;;3.20;;
48945;SDS011;34999;50.940;3.998;2023-04-28T13:50:05;3.40;;;3.20;;
48945;SDS011;34999;50.940;3.998;2023-04-28T13:52:33;3.07;;;2.90;;
48945;SDS011;34999;50.940;3.998;2023-04-28T13:55:03;3.43;;;3.17;;
48945;SDS011;34999;50.940;3.998;2023-04-28T13:57:33;6.23;;;2.53;;
48945;SDS011;34999;50.940;3.998;2023-04-28T14:00:02;2.30;;;2.20;;
48945;SDS011;34999;50.940;3.998;2023-04-28T14:02:31;2.80;;;2.60;;
48945;SDS011;34999;50.940;3.998;2023-04-28T14:05:01;3.13;;;2.70;;
48945;SDS011;34999;50.940;3.998;2023-04-28T14:07:29;3.17;;;2.40;;
48945;SDS011;34999;50.940;3.998;2023-04-28T14:09:58;1.80;;;1.80;;
48945;SDS011;34999;50.940;3.998;2023-04-28T14:12:26;2.73;;;2.10;;
48945;SDS011;34999;50.940;3.998;2023-04-28T14:14:56;2.03;;;2.00;;
48945;SDS011;34999;50.940;3.998;2023-04-28T14:17:24;2.27;;;2.23;;
48945;SDS011;34999;50.940;3.998;2023-04-28T14:19:53;3.37;;;2.30;;
48945;SDS011;34999;50.940;3.998;2023-04-28T14:22:21;2.43;;;2.23;;
48945;SDS011;34999;50.940;3.998;2023-04-28T14:24:50;2.43;;;2.33;;
48945;SDS011;34999;50.940;3.998;2023-04-28T14:27:19;2.43;;;2.23;;
48945;SDS011;34999;50.940;3.998;2023-04-28T14:29:47;2.43;;;2.33;;
48945;SDS011;34999;50.940;3.998;2023-04-28T14:32:17;2.30;;;2.20;;
48945;SDS011;34999;50.940;3.998;2023-04-28T14:34:46;2.33;;;2.20;;
48945;SDS011;34999;50.940;3.998;2023-04-28T14:37:15;2.70;;;2.20;;
48945;SDS011;34999;50.940;3.998;2023-04-28T14:39:44;1.90;;;1.80;;
48945;SDS011;34999;50.940;3.998;2023-04-28T14:42:12;1.90;;;1.80;;
48945;SDS011;34999;50.940;3.998;2023-04-28T14:44:40;1.80;;;1.70;;
48945;SDS011;34999;50.940;3.998;2023-04-28T14:47:09;1.50;;;1.43;;
48945;SDS011;34999;50.940;3.998;2023-04-28T14:49:40;1.87;;;1.40;;
48945;SDS011;34999;50.940;3.998;2023-04-28T14:52:08;1.90;;;1.47;;
48945;SDS011;34999;50.940;3.998;2023-04-28T14:54:36;1.30;;;1.30;;
48945;SDS011;34999;50.940;3.998;2023-04-28T14:57:05;1.20;;;1.20;;
48945;SDS011;34999;50.940;3.998;2023-04-28T14:59:33;1.60;;;1.50;;
48945;SDS011;34999;50.940;3.998;2023-04-28T15:02:02;1.57;;;1.57;;
48945;SDS011;34999;50.940;3.998;2023-04-28T15:04:31;1.97;;;1.87;;
48945;SDS011;34999;50.940;3.998;2023-04-28T15:07:03;2.03;;;1.93;;
48945;SDS011;34999;50.940;3.998;2023-04-28T15:09:33;1.83;;;1.60;;
48945;SDS011;34999;50.940;3.998;2023-04-28T15:12:02;2.00;;;1.90;;
48945;SDS011;34999;50.940;3.998;2023-04-28T15:14:31;1.90;;;1.80;;
48945;SDS011;34999;50.940;3.998;2023-04-28T15:17:02;2.20;;;2.10;;